地図

経路データ

SID SEASON NUMBER BASIN SUBBASIN NAME ISO_TIME NATURE LAT LON WMO_WIND WMO_PRES WMO_AGENCY TRACK_TYPE DIST2LAND LANDFALL IFLAG USA_AGENCY USA_ATCF_ID USA_LAT USA_LON USA_RECORD USA_STATUS USA_WIND USA_PRES USA_SSHS USA_R34_NE USA_R34_SE USA_R34_SW USA_R34_NW USA_R50_NE USA_R50_SE USA_R50_SW USA_R50_NW USA_R64_NE USA_R64_SE USA_R64_SW USA_R64_NW USA_POCI USA_ROCI USA_RMW USA_EYE TOKYO_LAT TOKYO_LON TOKYO_GRADE TOKYO_WIND TOKYO_PRES TOKYO_R50_DIR TOKYO_R50_LONG TOKYO_R50_SHORT TOKYO_R30_DIR TOKYO_R30_LONG TOKYO_R30_SHORT TOKYO_LAND CMA_LAT CMA_LON CMA_CAT CMA_WIND CMA_PRES HKO_LAT HKO_LON HKO_CAT HKO_WIND HKO_PRES NEWDELHI_LAT NEWDELHI_LON NEWDELHI_GRADE NEWDELHI_WIND NEWDELHI_PRES NEWDELHI_CI NEWDELHI_DP NEWDELHI_POCI REUNION_LAT REUNION_LON REUNION_TYPE REUNION_WIND REUNION_PRES REUNION_TNUM REUNION_CI REUNION_RMW REUNION_R34_NE REUNION_R34_SE REUNION_R34_SW REUNION_R34_NW REUNION_R50_NE REUNION_R50_SE REUNION_R50_SW REUNION_R50_NW REUNION_R64_NE REUNION_R64_SE REUNION_R64_SW REUNION_R64_NW BOM_LAT BOM_LON BOM_TYPE BOM_WIND BOM_PRES BOM_TNUM BOM_CI BOM_RMW BOM_R34_NE BOM_R34_SE BOM_R34_SW BOM_R34_NW BOM_R50_NE BOM_R50_SE BOM_R50_SW BOM_R50_NW BOM_R64_NE BOM_R64_SE BOM_R64_SW BOM_R64_NW BOM_ROCI BOM_POCI BOM_EYE BOM_POS_METHOD BOM_PRES_METHOD NADI_LAT NADI_LON NADI_CAT NADI_WIND NADI_PRES WELLINGTON_LAT WELLINGTON_LON WELLINGTON_WIND WELLINGTON_PRES DS824_LAT DS824_LON DS824_STAGE DS824_WIND DS824_PRES TD9636_LAT TD9636_LON TD9636_STAGE TD9636_WIND TD9636_PRES TD9635_LAT TD9635_LON TD9635_WIND TD9635_PRES TD9635_ROCI NEUMANN_LAT NEUMANN_LON NEUMANN_CLASS NEUMANN_WIND NEUMANN_PRES MLC_LAT MLC_LON MLC_CLASS MLC_WIND MLC_PRES USA_GUST BOM_GUST BOM_GUST_PER REUNION_GUST REUNION_GUST_PER USA_SEAHGT USA_SEARAD_NE USA_SEARAD_SE USA_SEARAD_SW USA_SEARAD_NW STORM_SPEED STORM_DIR
1990212N10338 1990 58 NA NA CESAR 1990-07-31 00:00:00 TS 10.1000 -22.2000 25 1014 hurdat_atl main 643 643 O_____________ hurdat_atl AL041990 10.1000 -22.2000 TD 25 1014 -1 11 285
1990212N10338 1990 58 NA NA CESAR 1990-07-31 03:00:00 TS 10.2376 -22.7375 main 689 689 P_____________ AL041990 10.2376 -22.7375 TD 25 1013 -1 11 285
1990212N10338 1990 58 NA NA CESAR 1990-07-31 06:00:00 TS 10.4000 -23.3000 25 1013 hurdat_atl main 743 743 O_____________ hurdat_atl AL041990 10.4000 -23.3000 TD 25 1013 -1 12 288
1990212N10338 1990 58 NA NA CESAR 1990-07-31 09:00:00 TS 10.6000 -23.9000 main 799 799 P_____________ AL041990 10.6000 -23.9000 TD 25 1013 -1 12 289
1990212N10338 1990 58 NA NA CESAR 1990-07-31 12:00:00 TS 10.8000 -24.5000 25 1013 hurdat_atl main 858 858 O_____________ hurdat_atl AL041990 10.8000 -24.5000 TD 25 1013 -1 12 287
1990212N10338 1990 58 NA NA CESAR 1990-07-31 15:00:00 TS 10.9498 -25.0427 main 909 909 P_____________ AL041990 10.9498 -25.0427 TD 25 1013 -1 11 286
1990212N10338 1990 58 NA NA CESAR 1990-07-31 18:00:00 TS 11.1000 -25.6000 25 1013 hurdat_atl main 966 966 O_____________ hurdat_atl AL041990 11.1000 -25.6000 TD 25 1013 -1 12 285
1990212N10338 1990 58 NA NA CESAR 1990-07-31 21:00:00 TS 11.2699 -26.2277 main 1016 1016 P_____________ AL041990 11.2699 -26.2277 TD 25 1013 -1 13 287
1990212N10338 1990 58 NA NA CESAR 1990-08-01 00:00:00 TS 11.5000 -26.9000 25 1013 hurdat_atl main 1079 1079 O_____________ hurdat_atl AL041990 11.5000 -26.9000 TD 25 1013 -1 14 291
1990212N10338 1990 58 NA NA CESAR 1990-08-01 03:00:00 TS 11.7899 -27.5928 main 1140 1140 P_____________ AL041990 11.7899 -27.5928 TD 25 1012 -1 15 297
1990212N10338 1990 58 NA NA CESAR 1990-08-01 06:00:00 TS 12.2000 -28.3000 25 1012 hurdat_atl main 1201 1201 O_____________ hurdat_atl AL041990 12.2000 -28.3000 TD 25 1012 -1 17 305
1990212N10338 1990 58 NA NA CESAR 1990-08-01 09:00:00 TS 12.7623 -28.9926 main 1260 1260 P_____________ AL041990 12.7623 -28.9926 TD 27 1012 -1 18 311
1990212N10338 1990 58 NA NA CESAR 1990-08-01 12:00:00 TS 13.4000 -29.7000 30 1012 hurdat_atl main 1324 1324 O_____________ hurdat_atl AL041990 13.4000 -29.7000 TD 30 1012 -1 19 311
1990212N10338 1990 58 NA NA CESAR 1990-08-01 15:00:00 TS 14.0301 -30.4723 main 1403 1402 P_____________ AL041990 14.0301 -30.4723 TD 30 1010 -1 19 310
1990212N10338 1990 58 NA NA CESAR 1990-08-01 18:00:00 TS 14.6000 -31.2000 30 1009 hurdat_atl main 1474 1474 O_____________ hurdat_atl AL041990 14.6000 -31.2000 TD 30 1009 -1 16 309
1990212N10338 1990 58 NA NA CESAR 1990-08-01 21:00:00 TS 15.0371 -31.7731 main 1537 1537 P_____________ AL041990 15.0371 -31.7731 TD 32 1007 -1 13 307
1990212N10338 1990 58 NA NA CESAR 1990-08-02 00:00:00 TS 15.4000 -32.3000 35 1005 hurdat_atl main 1591 1591 O_____________ hurdat_atl AL041990 15.4000 -32.3000 TS 35 1005 0 13 304
1990212N10338 1990 58 NA NA CESAR 1990-08-02 03:00:00 TS 15.7649 -32.8927 main 1656 1656 P_____________ AL041990 15.7649 -32.8927 TS 40 1003 0 14 301
1990212N10338 1990 58 NA NA CESAR 1990-08-02 06:00:00 TS 16.1000 -33.5000 45 1002 hurdat_atl main 1722 1722 O_____________ hurdat_atl AL041990 16.1000 -33.5000 TS 45 1002 0 13 299
1990212N10338 1990 58 NA NA CESAR 1990-08-02 09:00:00 TS 16.3998 -34.1003 main 1788 1788 P_____________ AL041990 16.3998 -34.1003 TS 45 1001 0 13 298
1990212N10338 1990 58 NA NA CESAR 1990-08-02 12:00:00 TS 16.7000 -34.7000 45 1000 hurdat_atl main 1854 1854 O_____________ hurdat_atl AL041990 16.7000 -34.7000 TS 45 1000 0 13 299
1990212N10338 1990 58 NA NA CESAR 1990-08-02 15:00:00 TS 17.0423 -35.3002 main 1921 1921 P_____________ AL041990 17.0423 -35.3002 TS 45 1000 0 13 301
1990212N10338 1990 58 NA NA CESAR 1990-08-02 18:00:00 TS 17.4000 -35.9000 45 1000 hurdat_atl main 1989 1989 O_____________ hurdat_atl AL041990 17.4000 -35.9000 TS 45 1000 0 13 302
1990212N10338 1990 58 NA NA CESAR 1990-08-02 21:00:00 TS 17.7497 -36.4928 main 2056 2056 P_____________ AL041990 17.7497 -36.4928 TS 45 1000 0 13 301
1990212N10338 1990 58 NA NA CESAR 1990-08-03 00:00:00 TS 18.1000 -37.1000 45 1000 hurdat_atl main 2117 2117 O_____________ hurdat_atl AL041990 18.1000 -37.1000 TS 45 1000 0 14 301
1990212N10338 1990 58 NA NA CESAR 1990-08-03 03:00:00 TS 18.4649 -37.7425 main 2170 2144 P_____________ AL041990 18.4649 -37.7425 TS 45 1000 0 14 300
1990212N10338 1990 58 NA NA CESAR 1990-08-03 06:00:00 TS 18.8000 -38.4000 45 1000 hurdat_atl main 2145 2120 O_____________ hurdat_atl AL041990 18.8000 -38.4000 TS 45 1000 0 14 296
1990212N10338 1990 58 NA NA CESAR 1990-08-03 09:00:00 TS 19.0649 -39.0653 main 2121 2097 P_____________ AL041990 19.0649 -39.0653 TS 45 1000 0 13 292
1990212N10338 1990 58 NA NA CESAR 1990-08-03 12:00:00 TS 19.3000 -39.7000 45 1000 hurdat_atl main 2099 2082 O_____________ hurdat_atl AL041990 19.3000 -39.7000 TS 45 1000 0 12 293
1990212N10338 1990 58 NA NA CESAR 1990-08-03 15:00:00 TS 19.5422 -40.2653 main 2078 2072 P_____________ AL041990 19.5422 -40.2653 TS 45 1000 0 12 296
1990212N10338 1990 58 NA NA CESAR 1990-08-03 18:00:00 TS 19.8000 -40.8000 45 1000 hurdat_atl main 2074 2059 O_____________ hurdat_atl AL041990 19.8000 -40.8000 TS 45 1000 0 12 297
1990212N10338 1990 58 NA NA CESAR 1990-08-03 21:00:00 TS 20.0775 -41.3652 main 2061 2052 P_____________ AL041990 20.0775 -41.3652 TS 45 1000 0 12 300
1990212N10338 1990 58 NA NA CESAR 1990-08-04 00:00:00 TS 20.4000 -41.9000 45 1000 hurdat_atl main 2057 2051 O_____________ hurdat_atl AL041990 20.4000 -41.9000 TS 45 1000 0 12 307
1990212N10338 1990 58 NA NA CESAR 1990-08-04 03:00:00 TS 20.7849 -42.3801 main 2064 2062 P_____________ AL041990 20.7849 -42.3801 TS 45 1000 0 12 314
1990212N10338 1990 58 NA NA CESAR 1990-08-04 06:00:00 TS 21.2000 -42.8000 45 1000 hurdat_atl main 2080 2080 O_____________ hurdat_atl AL041990 21.2000 -42.8000 TS 45 1000 0 11 318
1990212N10338 1990 58 NA NA CESAR 1990-08-04 09:00:00 TS 21.5999 -43.1802 main 2096 2096 P_____________ AL041990 21.5999 -43.1802 TS 45 1000 0 10 321
1990212N10338 1990 58 NA NA CESAR 1990-08-04 12:00:00 TS 22.0000 -43.5000 45 1000 hurdat_atl main 2120 2120 O_____________ hurdat_atl AL041990 22.0000 -43.5000 TS 45 1000 0 10 326
1990212N10338 1990 58 NA NA CESAR 1990-08-04 15:00:00 TS 22.3999 -43.7653 main 2144 2144 P_____________ AL041990 22.3999 -43.7653 TS 45 1000 0 9 330
1990212N10338 1990 58 NA NA CESAR 1990-08-04 18:00:00 TS 22.8000 -44.0000 45 1000 hurdat_atl main 2175 2175 O_____________ hurdat_atl AL041990 22.8000 -44.0000 TS 45 1000 0 9 331
1990212N10338 1990 58 NA NA CESAR 1990-08-04 21:00:00 TS 23.1999 -44.2427 main 2205 2201 P_____________ AL041990 23.1999 -44.2427 TS 45 1000 0 9 330
1990212N10338 1990 58 NA NA CESAR 1990-08-05 00:00:00 TS 23.6000 -44.5000 45 1000 hurdat_atl main 2233 2233 O_____________ hurdat_atl AL041990 23.6000 -44.5000 TS 45 1000 0 9 328
1990212N10338 1990 58 NA NA CESAR 1990-08-05 03:00:00 TS 23.9925 -44.7927 main 2242 2222 P_____________ AL041990 23.9925 -44.7927 TS 45 1000 0 10 326
1990212N10338 1990 58 NA NA CESAR 1990-08-05 06:00:00 TS 24.4000 -45.1000 45 1000 hurdat_atl main 2222 2204 O_____________ hurdat_atl AL041990 24.4000 -45.1000 TS 45 1000 0 10 327
1990212N10338 1990 58 NA NA CESAR 1990-08-05 09:00:00 TS 24.8499 -45.4001 main 2204 2190 P_____________ AL041990 24.8499 -45.4001 TS 45 1000 0 11 329
1990212N10338 1990 58 NA NA CESAR 1990-08-05 12:00:00 TS 25.3000 -45.7000 45 1000 hurdat_atl main 2190 2174 O_____________ hurdat_atl AL041990 25.3000 -45.7000 TS 45 1000 0 10 328
1990212N10338 1990 58 NA NA CESAR 1990-08-05 15:00:00 TS 25.7300 -46.0150 main 2174 2157 P_____________ AL041990 25.7300 -46.0150 TS 42 1001 0 10 326
1990212N10338 1990 58 NA NA CESAR 1990-08-05 18:00:00 TS 26.1000 -46.3000 40 1002 hurdat_atl main 2160 2149 O_____________ hurdat_atl AL041990 26.1000 -46.3000 TS 40 1002 0 8 325
1990212N10338 1990 58 NA NA CESAR 1990-08-05 21:00:00 TS 26.3950 -46.5376 main 2153 2138 P_____________ AL041990 26.3950 -46.5376 TS 40 1003 0 6 324
1990212N10338 1990 58 NA NA CESAR 1990-08-06 00:00:00 TS 26.6000 -46.7000 40 1004 hurdat_atl main 2142 2137 O_____________ hurdat_atl AL041990 26.6000 -46.7000 TS 40 1004 0 4 327
1990212N10338 1990 58 NA NA CESAR 1990-08-06 03:00:00 TS 26.7299 -46.7801 main 2137 2137 P_____________ AL041990 26.7299 -46.7801 TS 37 1005 0 2 335
1990212N10338 1990 58 NA NA CESAR 1990-08-06 06:00:00 TS 26.8000 -46.8000 35 1006 hurdat_atl main 2142 2142 O_____________ hurdat_atl AL041990 26.8000 -46.8000 TS 35 1006 0 1 341
1990212N10338 1990 58 NA NA CESAR 1990-08-06 09:00:00 TS 26.8650 -46.8225 main 2146 2146 P_____________ AL041990 26.8650 -46.8225 TS 32 1007 -1 1 0
1990212N10338 1990 58 NA NA CESAR 1990-08-06 12:00:00 TS 26.9000 -46.8000 30 1009 hurdat_atl main 2146 2146 O_____________ hurdat_atl AL041990 26.9000 -46.8000 TD 30 1009 -1 1 66
1990212N10338 1990 58 NA NA CESAR 1990-08-06 15:00:00 TS 26.9075 -46.7150 main 2155 2155 P_____________ AL041990 26.9075 -46.7150 TD 30 1010 -1 2 90
1990212N10338 1990 58 NA NA CESAR 1990-08-06 18:00:00 TS 26.9000 -46.6000 30 1011 hurdat_atl main 2164 2164 O_____________ hurdat_atl AL041990 26.9000 -46.6000 TD 30 1011 -1 2 92
1990212N10338 1990 58 NA NA CESAR 1990-08-06 21:00:00 TS 26.9000 -46.4925 main 2173 2173 P_____________ AL041990 26.9000 -46.4925 TD 27 1012 -1 2 90
1990212N10338 1990 58 NA NA CESAR 1990-08-07 00:00:00 TS 26.9000 -46.4000 25 1013 hurdat_atl main 2182 2182 O_____________ hurdat_atl AL041990 26.9000 -46.4000 TD 25 1013 -1 1 87
1990212N10338 1990 58 NA NA CESAR 1990-08-07 03:00:00 TS 26.9075 -46.3350 main 2192 2192 P_____________ AL041990 26.9075 -46.3350 TD 25 1013 -1 1 90
1990212N10338 1990 58 NA NA CESAR 1990-08-07 06:00:00 TS 26.9000 -46.3000 25 1014 hurdat_atl main 2192 2192 O_____________ hurdat_atl AL041990 26.9000 -46.3000 TD 25 1014 -1 1 148
1990212N10338 1990 58 NA NA CESAR 1990-08-07 09:00:00 TS 26.8600 -46.2925 main 2192 2188 P_____________ AL041990 26.8600 -46.2925 TD 25 1015 -1 1 0
1990212N10338 1990 58 NA NA CESAR 1990-08-07 12:00:00 TS 26.8000 -46.3000 25 1016 hurdat_atl main 2188 O_____________ hurdat_atl AL041990 26.8000 -46.3000 TD 25 1016 -1 1 0

IBTrACS Databaseについて

本データベースは、米国NOAAが公開する1842年以降の世界の熱帯低気圧のベストトラックデータアーカイブInternational Best Track Archive for Climate Stewardship (IBTrACS)を、ウェブで閲覧しやすい形式に変換したものです。

最終更新日:2021-11-26